Cele, Texas
Current Conditions -  °F | °C
As of 1:35 AM on Monday 22 Dec 2014 (Local Time) from KEDC Reporting Station
Overcast Overcast  
Wind Chill: 55°   Ceiling: 900
Heat Index: 55°   Visibility: 9mi
Dew Point: 54°   Wind: 12mph
Humidity: 94%   Direction: 200°SSW
Pressure: 29.8"   Gusts: 16mph
Location:  30.352°N, 97.5205°W
Report Text: KEDC 220735Z AUTO 20010G14KT 9SM OVC009 13/12 A2980 RMK AO2
Loading
Personal Weather Stations






























Interactive Weather Map New forecast layout! Learn more

10-Day Weather Forecast

Advertisements
Track Severe Weather on mobile